sensor_id;sensor_type;location;lat;lon;timestamp;P1;durP1;ratioP1;P2;durP2;ratioP2
13356;SDS011;6747;56.456;-3.120;2023-07-13T00:06:43;1.85;;;1.25;;
13356;SDS011;6747;56.456;-3.120;2023-07-13T00:12:25;1.25;;;1.25;;
13356;SDS011;6747;56.456;-3.120;2023-07-13T00:20:51;1.50;;;1.33;;
13356;SDS011;6747;56.456;-3.120;2023-07-13T00:23:28;1.70;;;1.33;;
13356;SDS011;6747;56.456;-3.120;2023-07-13T00:26:10;2.13;;;1.30;;
13356;SDS011;6747;56.456;-3.120;2023-07-13T00:28:39;1.95;;;1.40;;
13356;SDS011;6747;56.456;-3.120;2023-07-13T00:31:09;4.18;;;1.30;;
13356;SDS011;6747;56.456;-3.120;2023-07-13T00:33:37;2.20;;;1.60;;
13356;SDS011;6747;56.456;-3.120;2023-07-13T00:42:15;3.22;;;1.55;;
13356;SDS011;6747;56.456;-3.120;2023-07-13T00:47:31;2.33;;;1.52;;
13356;SDS011;6747;56.456;-3.120;2023-07-13T00:50:08;3.65;;;1.60;;
13356;SDS011;6747;56.456;-3.120;2023-07-13T00:52:41;2.53;;;1.83;;
13356;SDS011;6747;56.456;-3.120;2023-07-13T00:58:15;4.28;;;1.92;;
13356;SDS011;6747;56.456;-3.120;2023-07-13T01:00:43;4.30;;;1.95;;
13356;SDS011;6747;56.456;-3.120;2023-07-13T01:06:06;3.92;;;1.90;;
13356;SDS011;6747;56.456;-3.120;2023-07-13T01:08:35;2.40;;;2.20;;
13356;SDS011;6747;56.456;-3.120;2023-07-13T01:11:04;2.10;;;1.90;;
13356;SDS011;6747;56.456;-3.120;2023-07-13T01:13:34;3.17;;;1.50;;
13356;SDS011;6747;56.456;-3.120;2023-07-13T01:19:14;2.00;;;1.90;;
13356;SDS011;6747;56.456;-3.120;2023-07-13T01:30:20;3.53;;;1.60;;
13356;SDS011;6747;56.456;-3.120;2023-07-13T01:32:49;3.83;;;1.50;;
13356;SDS011;6747;56.456;-3.120;2023-07-13T01:38:21;1.20;;;1.20;;
13356;SDS011;6747;56.456;-3.120;2023-07-13T01:40:49;2.28;;;1.70;;
13356;SDS011;6747;56.456;-3.120;2023-07-13T01:43:17;1.52;;;1.38;;
13356;SDS011;6747;56.456;-3.120;2023-07-13T01:45:51;3.92;;;1.48;;
13356;SDS011;6747;56.456;-3.120;2023-07-13T01:48:20;1.70;;;1.60;;
13356;SDS011;6747;56.456;-3.120;2023-07-13T01:53:41;1.67;;;1.50;;
13356;SDS011;6747;56.456;-3.120;2023-07-13T01:59:13;1.50;;;1.40;;
13356;SDS011;6747;56.456;-3.120;2023-07-13T02:01:42;2.50;;;1.50;;
13356;SDS011;6747;56.456;-3.120;2023-07-13T02:04:10;2.33;;;1.45;;
13356;SDS011;6747;56.456;-3.120;2023-07-13T02:06:41;1.50;;;1.40;;
13356;SDS011;6747;56.456;-3.120;2023-07-13T02:09:22;2.00;;;1.73;;
13356;SDS011;6747;56.456;-3.120;2023-07-13T02:11:54;2.55;;;1.52;;
13356;SDS011;6747;56.456;-3.120;2023-07-13T02:17:26;2.30;;;1.55;;
13356;SDS011;6747;56.456;-3.120;2023-07-13T02:19:57;2.97;;;1.67;;
13356;SDS011;6747;56.456;-3.120;2023-07-13T02:22:27;1.67;;;1.58;;
13356;SDS011;6747;56.456;-3.120;2023-07-13T02:27:50;5.05;;;1.73;;
13356;SDS011;6747;56.456;-3.120;2023-07-13T02:30:28;1.77;;;1.35;;
13356;SDS011;6747;56.456;-3.120;2023-07-13T02:33:12;2.95;;;1.40;;
13356;SDS011;6747;56.456;-3.120;2023-07-13T02:38:45;3.00;;;1.60;;
13356;SDS011;6747;56.456;-3.120;2023-07-13T02:41:25;2.58;;;1.25;;
13356;SDS011;6747;56.456;-3.120;2023-07-13T02:43:58;1.85;;;1.45;;
13356;SDS011;6747;56.456;-3.120;2023-07-13T02:52:32;1.50;;;1.40;;
13356;SDS011;6747;56.456;-3.120;2023-07-13T02:57:50;1.60;;;1.40;;
13356;SDS011;6747;56.456;-3.120;2023-07-13T03:00:20;1.50;;;1.40;;
13356;SDS011;6747;56.456;-3.120;2023-07-13T03:03:01;2.35;;;1.30;;
13356;SDS011;6747;56.456;-3.120;2023-07-13T03:05:32;1.75;;;1.45;;
13356;SDS011;6747;56.456;-3.120;2023-07-13T03:19:41;1.88;;;1.27;;
13356;SDS011;6747;56.456;-3.120;2023-07-13T03:22:09;1.88;;;1.45;;
13356;SDS011;6747;56.456;-3.120;2023-07-13T03:24:38;2.35;;;1.50;;
13356;SDS011;6747;56.456;-3.120;2023-07-13T03:27:08;3.15;;;1.52;;
13356;SDS011;6747;56.456;-3.120;2023-07-13T03:29:36;2.63;;;1.42;;
13356;SDS011;6747;56.456;-3.120;2023-07-13T03:32:06;2.15;;;1.27;;
13356;SDS011;6747;56.456;-3.120;2023-07-13T03:37:31;1.77;;;1.27;;
13356;SDS011;6747;56.456;-3.120;2023-07-13T03:40:15;2.97;;;1.58;;
13356;SDS011;6747;56.456;-3.120;2023-07-13T03:42:43;1.73;;;1.20;;
13356;SDS011;6747;56.456;-3.120;2023-07-13T03:45:27;2.63;;;1.35;;
13356;SDS011;6747;56.456;-3.120;2023-07-13T03:48:12;2.03;;;1.50;;
13356;SDS011;6747;56.456;-3.120;2023-07-13T03:50:40;2.08;;;1.23;;
13356;SDS011;6747;56.456;-3.120;2023-07-13T03:53:14;2.92;;;1.40;;
13356;SDS011;6747;56.456;-3.120;2023-07-13T03:58:46;1.77;;;1.30;;
13356;SDS011;6747;56.456;-3.120;2023-07-13T04:01:27;2.63;;;1.25;;
13356;SDS011;6747;56.456;-3.120;2023-07-13T04:03:59;1.55;;;1.42;;
13356;SDS011;6747;56.456;-3.120;2023-07-13T04:12:06;1.42;;;1.33;;
13356;SDS011;6747;56.456;-3.120;2023-07-13T04:14:36;2.33;;;1.63;;
13356;SDS011;6747;56.456;-3.120;2023-07-13T04:19:50;3.45;;;1.50;;
13356;SDS011;6747;56.456;-3.120;2023-07-13T04:22:18;3.42;;;1.38;;
13356;SDS011;6747;56.456;-3.120;2023-07-13T04:33:30;1.48;;;1.30;;
13356;SDS011;6747;56.456;-3.120;2023-07-13T04:41:48;2.05;;;1.27;;
13356;SDS011;6747;56.456;-3.120;2023-07-13T04:44:16;2.13;;;1.20;;
13356;SDS011;6747;56.456;-3.120;2023-07-13T04:46:45;1.50;;;1.40;;
13356;SDS011;6747;56.456;-3.120;2023-07-13T04:49:22;4.00;;;1.50;;
13356;SDS011;6747;56.456;-3.120;2023-07-13T04:51:53;2.08;;;1.30;;
13356;SDS011;6747;56.456;-3.120;2023-07-13T04:57:25;3.28;;;1.23;;
13356;SDS011;6747;56.456;-3.120;2023-07-13T05:00:00;4.80;;;1.65;;
13356;SDS011;6747;56.456;-3.120;2023-07-13T05:02:30;3.90;;;1.38;;
13356;SDS011;6747;56.456;-3.120;2023-07-13T05:07:48;2.10;;;1.40;;
13356;SDS011;6747;56.456;-3.120;2023-07-13T05:10:16;1.63;;;1.30;;
13356;SDS011;6747;56.456;-3.120;2023-07-13T05:12:44;1.17;;;1.08;;
13356;SDS011;6747;56.456;-3.120;2023-07-13T05:21:19;1.33;;;1.30;;
13356;SDS011;6747;56.456;-3.120;2023-07-13T05:23:49;1.75;;;1.50;;
13356;SDS011;6747;56.456;-3.120;2023-07-13T05:29:20;1.40;;;1.30;;
13356;SDS011;6747;56.456;-3.120;2023-07-13T05:31:51;2.00;;;1.30;;
13356;SDS011;6747;56.456;-3.120;2023-07-13T05:34:19;1.83;;;1.50;;
13356;SDS011;6747;56.456;-3.120;2023-07-13T05:39:41;1.48;;;1.38;;
13356;SDS011;6747;56.456;-3.120;2023-07-13T05:42:09;1.58;;;1.30;;
13356;SDS011;6747;56.456;-3.120;2023-07-13T05:44:37;1.85;;;1.40;;
13356;SDS011;6747;56.456;-3.120;2023-07-13T05:47:08;1.42;;;1.30;;
13356;SDS011;6747;56.456;-3.120;2023-07-13T05:49:36;2.70;;;1.40;;
13356;SDS011;6747;56.456;-3.120;2023-07-13T05:52:09;1.55;;;1.45;;
13356;SDS011;6747;56.456;-3.120;2023-07-13T05:57:47;2.70;;;1.30;;
13356;SDS011;6747;56.456;-3.120;2023-07-13T06:00:23;2.20;;;1.40;;
13356;SDS011;6747;56.456;-3.120;2023-07-13T06:02:57;1.88;;;1.70;;
13356;SDS011;6747;56.456;-3.120;2023-07-13T06:08:43;1.65;;;1.40;;
13356;SDS011;6747;56.456;-3.120;2023-07-13T06:11:15;1.25;;;1.10;;
13356;SDS011;6747;56.456;-3.120;2023-07-13T06:13:51;3.03;;;1.30;;
13356;SDS011;6747;56.456;-3.120;2023-07-13T06:16:20;1.27;;;1.00;;
13356;SDS011;6747;56.456;-3.120;2023-07-13T06:18:50;1.35;;;1.25;;
13356;SDS011;6747;56.456;-3.120;2023-07-13T06:21:21;2.10;;;1.20;;
13356;SDS011;6747;56.456;-3.120;2023-07-13T06:23:50;1.35;;;1.20;;
13356;SDS011;6747;56.456;-3.120;2023-07-13T06:26:21;1.10;;;1.10;;
13356;SDS011;6747;56.456;-3.120;2023-07-13T06:28:57;1.88;;;1.30;;
13356;SDS011;6747;56.456;-3.120;2023-07-13T06:31:26;1.25;;;1.05;;
13356;SDS011;6747;56.456;-3.120;2023-07-13T06:33:57;1.55;;;1.45;;
13356;SDS011;6747;56.456;-3.120;2023-07-13T06:42:11;3.13;;;1.23;;
13356;SDS011;6747;56.456;-3.120;2023-07-13T06:50:47;0.90;;;0.90;;
13356;SDS011;6747;56.456;-3.120;2023-07-13T06:53:16;1.25;;;1.17;;
13356;SDS011;6747;56.456;-3.120;2023-07-13T06:58:48;1.20;;;1.20;;
13356;SDS011;6747;56.456;-3.120;2023-07-13T07:01:16;2.13;;;1.67;;
13356;SDS011;6747;56.456;-3.120;2023-07-13T07:03:43;1.38;;;1.27;;
13356;SDS011;6747;56.456;-3.120;2023-07-13T07:09:05;1.67;;;1.45;;
13356;SDS011;6747;56.456;-3.120;2023-07-13T07:11:36;2.63;;;1.25;;
13356;SDS011;6747;56.456;-3.120;2023-07-13T07:14:04;3.35;;;1.02;;
13356;SDS011;6747;56.456;-3.120;2023-07-13T07:16:34;1.48;;;1.30;;
13356;SDS011;6747;56.456;-3.120;2023-07-13T07:19:06;1.10;;;1.10;;
13356;SDS011;6747;56.456;-3.120;2023-07-13T07:21:34;1.40;;;1.30;;
13356;SDS011;6747;56.456;-3.120;2023-07-13T07:24:01;1.25;;;1.13;;
13356;SDS011;6747;56.456;-3.120;2023-07-13T07:26:31;0.93;;;0.93;;
13356;SDS011;6747;56.456;-3.120;2023-07-13T07:29:00;1.13;;;1.02;;
13356;SDS011;6747;56.456;-3.120;2023-07-13T07:31:28;1.20;;;1.10;;
13356;SDS011;6747;56.456;-3.120;2023-07-13T07:33:55;1.13;;;1.02;;
13356;SDS011;6747;56.456;-3.120;2023-07-13T07:36:27;1.52;;;0.95;;
13356;SDS011;6747;56.456;-3.120;2023-07-13T07:38:56;2.17;;;0.93;;
13356;SDS011;6747;56.456;-3.120;2023-07-13T07:41:24;1.17;;;1.08;;
13356;SDS011;6747;56.456;-3.120;2023-07-13T07:43:53;1.30;;;1.02;;
13356;SDS011;6747;56.456;-3.120;2023-07-13T07:46:23;1.48;;;1.08;;
13356;SDS011;6747;56.456;-3.120;2023-07-13T07:48:50;3.83;;;1.20;;
13356;SDS011;6747;56.456;-3.120;2023-07-13T07:51:18;1.75;;;0.98;;
13356;SDS011;6747;56.456;-3.120;2023-07-13T07:53:45;1.88;;;1.00;;
13356;SDS011;6747;56.456;-3.120;2023-07-13T07:56:13;0.90;;;0.90;;
13356;SDS011;6747;56.456;-3.120;2023-07-13T07:58:41;1.17;;;1.00;;
13356;SDS011;6747;56.456;-3.120;2023-07-13T08:01:10;0.73;;;0.73;;
13356;SDS011;6747;56.456;-3.120;2023-07-13T08:03:38;4.05;;;1.10;;
13356;SDS011;6747;56.456;-3.120;2023-07-13T08:06:05;1.10;;;1.10;;
13356;SDS011;6747;56.456;-3.120;2023-07-13T08:08:34;3.25;;;1.00;;
13356;SDS011;6747;56.456;-3.120;2023-07-13T08:11:02;2.33;;;0.90;;
13356;SDS011;6747;56.456;-3.120;2023-07-13T08:13:30;4.70;;;1.33;;
13356;SDS011;6747;56.456;-3.120;2023-07-13T08:15:58;1.00;;;0.95;;
13356;SDS011;6747;56.456;-3.120;2023-07-13T08:18:26;2.03;;;1.20;;
13356;SDS011;6747;56.456;-3.120;2023-07-13T08:20:54;1.15;;;0.90;;
13356;SDS011;6747;56.456;-3.120;2023-07-13T08:23:22;1.45;;;1.13;;
13356;SDS011;6747;56.456;-3.120;2023-07-13T08:25:53;1.10;;;1.00;;
13356;SDS011;6747;56.456;-3.120;2023-07-13T08:28:21;1.13;;;0.95;;
13356;SDS011;6747;56.456;-3.120;2023-07-13T08:30:48;1.02;;;0.90;;
13356;SDS011;6747;56.456;-3.120;2023-07-13T08:33:16;0.60;;;0.60;;
13356;SDS011;6747;56.456;-3.120;2023-07-13T08:35:46;0.80;;;0.80;;
13356;SDS011;6747;56.456;-3.120;2023-07-13T08:38:14;0.80;;;0.80;;
13356;SDS011;6747;56.456;-3.120;2023-07-13T08:40:41;1.08;;;1.00;;
13356;SDS011;6747;56.456;-3.120;2023-07-13T08:43:12;0.68;;;0.68;;
13356;SDS011;6747;56.456;-3.120;2023-07-13T08:45:42;2.05;;;0.85;;
13356;SDS011;6747;56.456;-3.120;2023-07-13T08:48:11;1.75;;;0.80;;
13356;SDS011;6747;56.456;-3.120;2023-07-13T08:50:43;1.30;;;0.70;;
13356;SDS011;6747;56.456;-3.120;2023-07-13T08:53:15;0.47;;;0.47;;
13356;SDS011;6747;56.456;-3.120;2023-07-13T08:55:43;2.20;;;0.82;;
13356;SDS011;6747;56.456;-3.120;2023-07-13T08:58:11;0.80;;;0.80;;
13356;SDS011;6747;56.456;-3.120;2023-07-13T09:00:43;1.00;;;0.50;;
13356;SDS011;6747;56.456;-3.120;2023-07-13T09:03:14;2.20;;;0.40;;
13356;SDS011;6747;56.456;-3.120;2023-07-13T09:05:46;1.38;;;0.63;;
13356;SDS011;6747;56.456;-3.120;2023-07-13T09:08:21;2.58;;;0.90;;
13356;SDS011;6747;56.456;-3.120;2023-07-13T09:10:52;1.17;;;0.80;;
13356;SDS011;6747;56.456;-3.120;2023-07-13T09:13:24;1.23;;;0.80;;
13356;SDS011;6747;56.456;-3.120;2023-07-13T09:15:57;1.33;;;0.77;;
13356;SDS011;6747;56.456;-3.120;2023-07-13T09:18:32;0.93;;;0.90;;
13356;SDS011;6747;56.456;-3.120;2023-07-13T09:21:03;2.00;;;0.77;;
13356;SDS011;6747;56.456;-3.120;2023-07-13T09:23:32;1.15;;;1.13;;
13356;SDS011;6747;56.456;-3.120;2023-07-13T09:29:06;1.85;;;0.70;;
13356;SDS011;6747;56.456;-3.120;2023-07-13T09:31:39;0.70;;;0.70;;
13356;SDS011;6747;56.456;-3.120;2023-07-13T09:34:08;1.30;;;0.63;;
13356;SDS011;6747;56.456;-3.120;2023-07-13T09:39:41;0.60;;;0.60;;
13356;SDS011;6747;56.456;-3.120;2023-07-13T09:42:12;2.38;;;0.52;;
13356;SDS011;6747;56.456;-3.120;2023-07-13T09:53:38;0.70;;;0.70;;
13356;SDS011;6747;56.456;-3.120;2023-07-13T09:56:11;1.63;;;0.60;;
13356;SDS011;6747;56.456;-3.120;2023-07-13T09:58:45;0.63;;;0.60;;
13356;SDS011;6747;56.456;-3.120;2023-07-13T10:01:13;0.60;;;0.60;;
13356;SDS011;6747;56.456;-3.120;2023-07-13T10:03:51;4.75;;;0.80;;
13356;SDS011;6747;56.456;-3.120;2023-07-13T10:09:06;1.20;;;0.63;;
13356;SDS011;6747;56.456;-3.120;2023-07-13T10:11:36;2.47;;;0.60;;
13356;SDS011;6747;56.456;-3.120;2023-07-13T10:14:09;1.08;;;0.70;;
13356;SDS011;6747;56.456;-3.120;2023-07-13T10:16:37;0.95;;;0.70;;
13356;SDS011;6747;56.456;-3.120;2023-07-13T10:19:06;0.82;;;0.63;;
13356;SDS011;6747;56.456;-3.120;2023-07-13T10:21:38;1.27;;;0.80;;
13356;SDS011;6747;56.456;-3.120;2023-07-13T10:24:10;3.35;;;0.75;;
13356;SDS011;6747;56.456;-3.120;2023-07-13T10:26:45;1.20;;;0.60;;
13356;SDS011;6747;56.456;-3.120;2023-07-13T10:32:21;0.32;;;0.32;;
13356;SDS011;6747;56.456;-3.120;2023-07-13T10:40:13;0.60;;;0.60;;
13356;SDS011;6747;56.456;-3.120;2023-07-13T10:42:50;0.82;;;0.52;;
13356;SDS011;6747;56.456;-3.120;2023-07-13T10:45:22;2.05;;;0.38;;
13356;SDS011;6747;56.456;-3.120;2023-07-13T10:47:52;0.50;;;0.50;;
13356;SDS011;6747;56.456;-3.120;2023-07-13T10:50:24;1.23;;;0.50;;
13356;SDS011;6747;56.456;-3.120;2023-07-13T10:52:54;0.32;;;0.32;;
13356;SDS011;6747;56.456;-3.120;2023-07-13T10:58:14;0.77;;;0.60;;
13356;SDS011;6747;56.456;-3.120;2023-07-13T11:00:44;0.40;;;0.40;;
13356;SDS011;6747;56.456;-3.120;2023-07-13T11:03:16;3.55;;;0.70;;
13356;SDS011;6747;56.456;-3.120;2023-07-13T11:08:21;0.70;;;0.68;;
13356;SDS011;6747;56.456;-3.120;2023-07-13T11:10:58;1.17;;;0.70;;
13356;SDS011;6747;56.456;-3.120;2023-07-13T11:13:37;0.45;;;0.30;;
13356;SDS011;6747;56.456;-3.120;2023-07-13T11:19:08;1.75;;;0.55;;
13356;SDS011;6747;56.456;-3.120;2023-07-13T11:22:10;1.40;;;0.60;;
13356;SDS011;6747;56.456;-3.120;2023-07-13T11:27:33;1.13;;;0.47;;
13356;SDS011;6747;56.456;-3.120;2023-07-13T11:30:17;2.35;;;0.85;;
13356;SDS011;6747;56.456;-3.120;2023-07-13T11:32:51;2.00;;;0.70;;
13356;SDS011;6747;56.456;-3.120;2023-07-13T11:38:31;0.82;;;0.65;;
13356;SDS011;6747;56.456;-3.120;2023-07-13T11:41:04;2.40;;;0.68;;
13356;SDS011;6747;56.456;-3.120;2023-07-13T11:43:32;1.00;;;0.70;;
13356;SDS011;6747;56.456;-3.120;2023-07-13T11:51:53;0.73;;;0.50;;
13356;SDS011;6747;56.456;-3.120;2023-07-13T11:54:32;0.30;;;0.30;;
13356;SDS011;6747;56.456;-3.120;2023-07-13T11:57:23;3.28;;;0.75;;
13356;SDS011;6747;56.456;-3.120;2023-07-13T11:59:52;0.70;;;0.40;;
13356;SDS011;6747;56.456;-3.120;2023-07-13T12:02:24;0.65;;;0.45;;
13356;SDS011;6747;56.456;-3.120;2023-07-13T12:19:40;3.33;;;1.13;;
13356;SDS011;6747;56.456;-3.120;2023-07-13T12:22:08;1.95;;;0.82;;
13356;SDS011;6747;56.456;-3.120;2023-07-13T12:30:28;0.60;;;0.40;;
13356;SDS011;6747;56.456;-3.120;2023-07-13T12:32:57;2.85;;;0.40;;
13356;SDS011;6747;56.456;-3.120;2023-07-13T12:35:28;0.63;;;0.47;;
13356;SDS011;6747;56.456;-3.120;2023-07-13T12:38:00;0.88;;;0.52;;
13356;SDS011;6747;56.456;-3.120;2023-07-13T12:40:32;1.55;;;0.55;;
13356;SDS011;6747;56.456;-3.120;2023-07-13T12:43:01;1.42;;;0.63;;
13356;SDS011;6747;56.456;-3.120;2023-07-13T12:48:21;1.15;;;0.63;;
13356;SDS011;6747;56.456;-3.120;2023-07-13T12:50:50;0.50;;;0.50;;
13356;SDS011;6747;56.456;-3.120;2023-07-13T12:53:19;2.00;;;0.60;;
13356;SDS011;6747;56.456;-3.120;2023-07-13T12:55:50;1.85;;;1.13;;
13356;SDS011;6747;56.456;-3.120;2023-07-13T12:58:21;0.82;;;0.70;;
13356;SDS011;6747;56.456;-3.120;2023-07-13T13:00:54;2.38;;;1.00;;
13356;SDS011;6747;56.456;-3.120;2023-07-13T13:03:23;1.75;;;1.05;;
13356;SDS011;6747;56.456;-3.120;2023-07-13T13:11:10;1.00;;;0.90;;
13356;SDS011;6747;56.456;-3.120;2023-07-13T13:13:41;2.58;;;0.93;;
13356;SDS011;6747;56.456;-3.120;2023-07-13T13:19:13;1.75;;;1.02;;
13356;SDS011;6747;56.456;-3.120;2023-07-13T13:21:42;1.92;;;1.00;;
13356;SDS011;6747;56.456;-3.120;2023-07-13T13:24:13;1.85;;;1.00;;
13356;SDS011;6747;56.456;-3.120;2023-07-13T13:26:42;1.30;;;0.82;;
13356;SDS011;6747;56.456;-3.120;2023-07-13T13:29:15;1.25;;;1.15;;
13356;SDS011;6747;56.456;-3.120;2023-07-13T13:34:46;2.92;;;1.23;;
13356;SDS011;6747;56.456;-3.120;2023-07-13T13:40:20;1.85;;;1.10;;
13356;SDS011;6747;56.456;-3.120;2023-07-13T13:42:50;1.45;;;1.25;;
13356;SDS011;6747;56.456;-3.120;2023-07-13T13:48:24;2.60;;;1.50;;
13356;SDS011;6747;56.456;-3.120;2023-07-13T13:50:55;2.10;;;1.20;;
13356;SDS011;6747;56.456;-3.120;2023-07-13T13:53:23;2.10;;;1.40;;
13356;SDS011;6747;56.456;-3.120;2023-07-13T13:55:52;2.17;;;1.08;;
13356;SDS011;6747;56.456;-3.120;2023-07-13T14:01:30;1.10;;;0.90;;
13356;SDS011;6747;56.456;-3.120;2023-07-13T14:04:00;1.00;;;0.88;;
13356;SDS011;6747;56.456;-3.120;2023-07-13T14:09:31;2.38;;;0.98;;
13356;SDS011;6747;56.456;-3.120;2023-07-13T14:12:00;0.88;;;0.88;;
13356;SDS011;6747;56.456;-3.120;2023-07-13T14:20:21;0.90;;;0.90;;
13356;SDS011;6747;56.456;-3.120;2023-07-13T14:22:49;0.90;;;0.60;;
13356;SDS011;6747;56.456;-3.120;2023-07-13T14:25:20;0.60;;;0.60;;
13356;SDS011;6747;56.456;-3.120;2023-07-13T14:27:51;1.05;;;0.95;;
13356;SDS011;6747;56.456;-3.120;2023-07-13T14:30:21;1.02;;;0.80;;
13356;SDS011;6747;56.456;-3.120;2023-07-13T14:32:49;0.57;;;0.50;;
13356;SDS011;6747;56.456;-3.120;2023-07-13T14:38:09;0.30;;;0.30;;
13356;SDS011;6747;56.456;-3.120;2023-07-13T14:40:37;0.30;;;0.30;;
13356;SDS011;6747;56.456;-3.120;2023-07-13T14:43:09;0.63;;;0.63;;
13356;SDS011;6747;56.456;-3.120;2023-07-13T14:48:26;0.65;;;0.35;;
13356;SDS011;6747;56.456;-3.120;2023-07-13T14:50:55;1.38;;;0.90;;
13356;SDS011;6747;56.456;-3.120;2023-07-13T14:53:25;1.98;;;0.73;;
13356;SDS011;6747;56.456;-3.120;2023-07-13T14:58:57;1.65;;;0.95;;
13356;SDS011;6747;56.456;-3.120;2023-07-13T15:01:25;0.95;;;0.90;;
13356;SDS011;6747;56.456;-3.120;2023-07-13T15:03:55;0.63;;;0.60;;
13356;SDS011;6747;56.456;-3.120;2023-07-13T15:09:11;1.02;;;0.60;;
13356;SDS011;6747;56.456;-3.120;2023-07-13T15:11:39;0.40;;;0.40;;
13356;SDS011;6747;56.456;-3.120;2023-07-13T15:14:07;1.00;;;0.70;;
13356;SDS011;6747;56.456;-3.120;2023-07-13T15:21:53;0.68;;;0.68;;
13356;SDS011;6747;56.456;-3.120;2023-07-13T15:24:24;0.95;;;0.70;;
13356;SDS011;6747;56.456;-3.120;2023-07-13T15:29:38;1.15;;;0.70;;
13356;SDS011;6747;56.456;-3.120;2023-07-13T15:32:09;2.53;;;0.60;;
13356;SDS011;6747;56.456;-3.120;2023-07-13T15:34:39;0.77;;;0.50;;
13356;SDS011;6747;56.456;-3.120;2023-07-13T15:37:11;0.63;;;0.55;;
13356;SDS011;6747;56.456;-3.120;2023-07-13T15:39:41;0.80;;;0.80;;
13356;SDS011;6747;56.456;-3.120;2023-07-13T15:42:12;1.77;;;0.60;;
13356;SDS011;6747;56.456;-3.120;2023-07-13T15:44:41;0.55;;;0.55;;
13356;SDS011;6747;56.456;-3.120;2023-07-13T15:50:03;2.05;;;0.90;;
13356;SDS011;6747;56.456;-3.120;2023-07-13T15:52:34;1.02;;;0.85;;
13356;SDS011;6747;56.456;-3.120;2023-07-13T16:00:55;1.17;;;0.55;;
13356;SDS011;6747;56.456;-3.120;2023-07-13T16:03:22;0.50;;;0.50;;
13356;SDS011;6747;56.456;-3.120;2023-07-13T16:08:41;0.40;;;0.40;;
13356;SDS011;6747;56.456;-3.120;2023-07-13T16:11:12;0.35;;;0.35;;
13356;SDS011;6747;56.456;-3.120;2023-07-13T16:13:39;0.73;;;0.40;;
13356;SDS011;6747;56.456;-3.120;2023-07-13T16:16:09;0.55;;;0.30;;
13356;SDS011;6747;56.456;-3.120;2023-07-13T16:18:37;0.20;;;0.20;;
13356;SDS011;6747;56.456;-3.120;2023-07-13T16:21:09;0.93;;;0.60;;
13356;SDS011;6747;56.456;-3.120;2023-07-13T16:23:37;2.00;;;0.50;;
13356;SDS011;6747;56.456;-3.120;2023-07-13T16:26:12;0.22;;;0.20;;
13356;SDS011;6747;56.456;-3.120;2023-07-13T16:28:43;0.35;;;0.35;;
13356;SDS011;6747;56.456;-3.120;2023-07-13T16:31:12;0.30;;;0.30;;
13356;SDS011;6747;56.456;-3.120;2023-07-13T16:33:40;0.80;;;0.30;;
13356;SDS011;6747;56.456;-3.120;2023-07-13T16:36:08;1.25;;;0.43;;
13356;SDS011;6747;56.456;-3.120;2023-07-13T16:38:37;0.38;;;0.38;;
13356;SDS011;6747;56.456;-3.120;2023-07-13T16:41:05;0.20;;;0.20;;
13356;SDS011;6747;56.456;-3.120;2023-07-13T16:43:34;0.40;;;0.40;;
13356;SDS011;6747;56.456;-3.120;2023-07-13T16:46:02;0.50;;;0.50;;
13356;SDS011;6747;56.456;-3.120;2023-07-13T16:48:32;0.45;;;0.40;;
13356;SDS011;6747;56.456;-3.120;2023-07-13T16:50:59;0.57;;;0.57;;
13356;SDS011;6747;56.456;-3.120;2023-07-13T16:53:30;2.30;;;0.50;;
13356;SDS011;6747;56.456;-3.120;2023-07-13T16:55:58;0.80;;;0.63;;
13356;SDS011;6747;56.456;-3.120;2023-07-13T16:58:28;1.05;;;0.63;;
13356;SDS011;6747;56.456;-3.120;2023-07-13T17:00:57;0.30;;;0.30;;
13356;SDS011;6747;56.456;-3.120;2023-07-13T17:03:25;0.38;;;0.38;;
13356;SDS011;6747;56.456;-3.120;2023-07-13T17:12:03;0.90;;;0.30;;
13356;SDS011;6747;56.456;-3.120;2023-07-13T17:14:33;0.47;;;0.45;;
13356;SDS011;6747;56.456;-3.120;2023-07-13T17:17:02;1.15;;;0.40;;
13356;SDS011;6747;56.456;-3.120;2023-07-13T17:19:31;0.32;;;0.30;;
13356;SDS011;6747;56.456;-3.120;2023-07-13T17:21:59;0.52;;;0.30;;
13356;SDS011;6747;56.456;-3.120;2023-07-13T17:24:30;0.45;;;0.45;;
13356;SDS011;6747;56.456;-3.120;2023-07-13T17:27:00;1.08;;;0.50;;
13356;SDS011;6747;56.456;-3.120;2023-07-13T17:29:29;0.82;;;0.30;;
13356;SDS011;6747;56.456;-3.120;2023-07-13T17:31:57;0.20;;;0.20;;
13356;SDS011;6747;56.456;-3.120;2023-07-13T17:34:25;1.48;;;0.30;;
13356;SDS011;6747;56.456;-3.120;2023-07-13T17:36:52;1.48;;;0.80;;
13356;SDS011;6747;56.456;-3.120;2023-07-13T17:39:20;0.43;;;0.43;;
13356;SDS011;6747;56.456;-3.120;2023-07-13T17:41:48;0.50;;;0.50;;
13356;SDS011;6747;56.456;-3.120;2023-07-13T17:44:16;0.55;;;0.55;;
13356;SDS011;6747;56.456;-3.120;2023-07-13T17:46:45;1.55;;;0.60;;
13356;SDS011;6747;56.456;-3.120;2023-07-13T17:49:15;0.30;;;0.30;;
13356;SDS011;6747;56.456;-3.120;2023-07-13T17:51:45;1.02;;;0.55;;
13356;SDS011;6747;56.456;-3.120;2023-07-13T17:54:13;0.32;;;0.32;;
13356;SDS011;6747;56.456;-3.120;2023-07-13T17:56:41;0.90;;;0.47;;
13356;SDS011;6747;56.456;-3.120;2023-07-13T17:59:08;0.47;;;0.47;;
13356;SDS011;6747;56.456;-3.120;2023-07-13T18:01:36;0.40;;;0.40;;
13356;SDS011;6747;56.456;-3.120;2023-07-13T18:04:07;0.75;;;0.38;;
13356;SDS011;6747;56.456;-3.120;2023-07-13T18:06:37;1.63;;;0.98;;
13356;SDS011;6747;56.456;-3.120;2023-07-13T18:09:16;0.68;;;0.45;;
13356;SDS011;6747;56.456;-3.120;2023-07-13T18:11:45;0.40;;;0.38;;
13356;SDS011;6747;56.456;-3.120;2023-07-13T18:14:13;1.23;;;0.60;;
13356;SDS011;6747;56.456;-3.120;2023-07-13T18:16:42;0.43;;;0.43;;
13356;SDS011;6747;56.456;-3.120;2023-07-13T18:19:20;1.60;;;0.80;;
13356;SDS011;6747;56.456;-3.120;2023-07-13T18:21:49;0.40;;;0.40;;
13356;SDS011;6747;56.456;-3.120;2023-07-13T18:24:16;1.55;;;0.60;;
13356;SDS011;6747;56.456;-3.120;2023-07-13T18:26:46;0.90;;;0.50;;
13356;SDS011;6747;56.456;-3.120;2023-07-13T18:29:18;0.57;;;0.57;;
13356;SDS011;6747;56.456;-3.120;2023-07-13T18:31:46;0.88;;;0.65;;
13356;SDS011;6747;56.456;-3.120;2023-07-13T18:34:13;1.02;;;0.60;;
13356;SDS011;6747;56.456;-3.120;2023-07-13T18:36:44;0.65;;;0.65;;
13356;SDS011;6747;56.456;-3.120;2023-07-13T18:39:13;2.60;;;0.50;;
13356;SDS011;6747;56.456;-3.120;2023-07-13T18:41:40;0.55;;;0.55;;
13356;SDS011;6747;56.456;-3.120;2023-07-13T18:44:09;0.50;;;0.50;;
13356;SDS011;6747;56.456;-3.120;2023-07-13T18:52:30;0.40;;;0.40;;
13356;SDS011;6747;56.456;-3.120;2023-07-13T18:58:01;1.65;;;0.50;;
13356;SDS011;6747;56.456;-3.120;2023-07-13T19:00:29;1.83;;;0.60;;
13356;SDS011;6747;56.456;-3.120;2023-07-13T19:08:53;0.43;;;0.43;;
13356;SDS011;6747;56.456;-3.120;2023-07-13T19:11:20;0.50;;;0.50;;
13356;SDS011;6747;56.456;-3.120;2023-07-13T19:13:49;1.50;;;0.32;;
13356;SDS011;6747;56.456;-3.120;2023-07-13T19:16:19;0.43;;;0.40;;
13356;SDS011;6747;56.456;-3.120;2023-07-13T19:18:47;0.75;;;0.50;;
13356;SDS011;6747;56.456;-3.120;2023-07-13T19:21:19;0.30;;;0.30;;
13356;SDS011;6747;56.456;-3.120;2023-07-13T19:23:50;0.30;;;0.30;;
13356;SDS011;6747;56.456;-3.120;2023-07-13T19:29:08;1.40;;;0.52;;
13356;SDS011;6747;56.456;-3.120;2023-07-13T19:31:40;0.55;;;0.55;;
13356;SDS011;6747;56.456;-3.120;2023-07-13T19:34:14;0.65;;;0.50;;
13356;SDS011;6747;56.456;-3.120;2023-07-13T19:36:43;0.40;;;0.40;;
13356;SDS011;6747;56.456;-3.120;2023-07-13T19:39:15;0.40;;;0.40;;
13356;SDS011;6747;56.456;-3.120;2023-07-13T19:41:43;0.50;;;0.50;;
13356;SDS011;6747;56.456;-3.120;2023-07-13T19:44:13;0.30;;;0.30;;
13356;SDS011;6747;56.456;-3.120;2023-07-13T19:46:41;0.40;;;0.40;;
13356;SDS011;6747;56.456;-3.120;2023-07-13T19:49:08;1.17;;;0.57;;
13356;SDS011;6747;56.456;-3.120;2023-07-13T19:51:36;4.25;;;0.70;;
13356;SDS011;6747;56.456;-3.120;2023-07-13T19:54:09;0.55;;;0.50;;
13356;SDS011;6747;56.456;-3.120;2023-07-13T19:56:38;0.30;;;0.30;;
13356;SDS011;6747;56.456;-3.120;2023-07-13T19:59:12;1.55;;;0.50;;
13356;SDS011;6747;56.456;-3.120;2023-07-13T20:01:47;2.08;;;0.40;;
13356;SDS011;6747;56.456;-3.120;2023-07-13T20:04:15;0.50;;;0.50;;
13356;SDS011;6747;56.456;-3.120;2023-07-13T20:06:42;1.02;;;0.45;;
13356;SDS011;6747;56.456;-3.120;2023-07-13T20:09:12;0.57;;;0.50;;
13356;SDS011;6747;56.456;-3.120;2023-07-13T20:11:44;0.60;;;0.60;;